createdAt,value
2018-09-13T00:00:12.337Z,102093.68
2018-09-13T00:01:13.903Z,102092.76
2018-09-13T00:02:14.475Z,102091.61
2018-09-13T00:03:14.692Z,102091.29
2018-09-13T00:04:15.485Z,102090.31
2018-09-13T00:05:16.307Z,102089.36
2018-09-13T00:06:16.704Z,102088.86
2018-09-13T00:07:17.072Z,102088.41
2018-09-13T00:08:17.597Z,102087.56
2018-09-13T00:09:18.195Z,102086.80
2018-09-13T00:10:18.916Z,102086.08
2018-09-13T00:11:19.227Z,102085.62
2018-09-13T00:12:19.569Z,102085.33
2018-09-13T00:13:20.242Z,102085.11
2018-09-13T00:14:20.603Z,102084.56
2018-09-13T00:15:20.808Z,102084.91
2018-09-13T00:16:21.787Z,102085.03
2018-09-13T00:17:22.063Z,102084.70
2018-09-13T00:18:22.989Z,102084.45
2018-09-13T00:19:23.254Z,102084.45
2018-09-13T00:20:24.116Z,102084.11
2018-09-13T00:21:24.444Z,102084.11
2018-09-13T00:22:25.194Z,102083.25
2018-09-13T00:23:25.619Z,102083.42
2018-09-13T00:23:33.995Z,102075.02
2018-09-13T00:24:35.070Z,102074.80
2018-09-13T00:25:35.902Z,102074.85
2018-09-13T00:26:36.806Z,102074.46
2018-09-13T00:27:37.608Z,102074.47
2018-09-13T00:28:38.294Z,102073.83
2018-09-13T00:29:38.931Z,102073.75
2018-09-13T00:30:39.349Z,102073.41
2018-09-13T00:31:39.586Z,102072.73
2018-09-13T00:32:40.422Z,102072.73
2018-09-13T00:33:40.681Z,102072.88
2018-09-13T00:34:41.485Z,102072.74
2018-09-13T00:35:42.269Z,102072.58
2018-09-13T00:36:43.104Z,102072.67
2018-09-13T00:37:43.403Z,102072.20
2018-09-13T00:38:44.344Z,102072.28
2018-09-13T00:39:44.513Z,102071.56
2018-09-13T00:40:44.878Z,102071.27
2018-09-13T00:41:45.362Z,102070.25
2018-09-13T00:42:45.692Z,102070.16
2018-09-13T00:43:46.285Z,102069.19
2018-09-13T00:44:47.156Z,102068.76
2018-09-13T00:45:47.750Z,102068.17
2018-09-13T00:46:48.638Z,102067.87
2018-09-13T00:47:49.345Z,102067.37
2018-09-13T00:48:50.273Z,102066.73
2018-09-13T00:49:50.581Z,102066.43
2018-09-13T00:50:50.634Z,102065.67
2018-09-13T00:51:51.166Z,102065.55
2018-09-13T00:52:52.064Z,102065.16
2018-09-13T00:53:52.632Z,102064.23
2018-09-13T00:54:52.933Z,102064.45
2018-09-13T00:55:53.671Z,102064.70
2018-09-13T00:56:53.942Z,102064.75
2018-09-13T00:57:54.942Z,102064.84
2018-09-13T00:58:55.467Z,102065.34
2018-09-13T00:59:55.083Z,102065.27
2018-09-13T01:00:56.378Z,102065.39
2018-09-13T01:01:57.056Z,102064.97
2018-09-13T01:02:57.497Z,102065.66
2018-09-13T01:03:58.471Z,102065.62
2018-09-13T01:04:58.307Z,102065.14
2018-09-13T01:06:00.148Z,102065.23
2018-09-13T01:07:00.447Z,102065.58
2018-09-13T01:08:01.292Z,102065.50
2018-09-13T01:09:01.608Z,102065.20
2018-09-13T01:10:01.512Z,102065.38
2018-09-13T01:10:09.951Z,102073.36
2018-09-13T01:11:10.246Z,102073.44
2018-09-13T01:12:12.062Z,102073.70
2018-09-13T01:13:12.830Z,102074.13
2018-09-13T01:14:12.937Z,102074.42
2018-09-13T01:15:13.264Z,102074.64
2018-09-13T01:16:14.073Z,102074.69
2018-09-13T01:17:14.804Z,102074.69
2018-09-13T01:18:15.593Z,102074.15
2018-09-13T01:19:16.530Z,102073.35
2018-09-13T01:20:17.397Z,102072.76
2018-09-13T01:21:18.306Z,102072.08
2018-09-13T01:22:19.102Z,102071.48
2018-09-13T01:23:19.126Z,102071.20
2018-09-13T01:24:19.452Z,102070.87
2018-09-13T01:25:20.238Z,102070.95
2018-09-13T01:26:20.828Z,102070.16
2018-09-13T01:27:21.751Z,102069.98
2018-09-13T01:28:21.812Z,102070.42
2018-09-13T01:29:22.659Z,102070.21
2018-09-13T01:30:23.361Z,102070.08
2018-09-13T01:31:23.763Z,102070.17
2018-09-13T01:32:23.914Z,102070.60
2018-09-13T01:33:24.183Z,102070.72
2018-09-13T01:34:25.095Z,102070.72
2018-09-13T01:35:25.923Z,102070.94
2018-09-13T01:36:26.434Z,102071.11
2018-09-13T01:37:27.352Z,102071.70
2018-09-13T01:38:27.367Z,102072.30
2018-09-13T01:39:27.721Z,102072.86
2018-09-13T01:40:27.897Z,102073.97
2018-09-13T01:41:28.296Z,102074.81
2018-09-13T01:42:29.075Z,102075.28
2018-09-13T01:43:29.345Z,102075.91
2018-09-13T01:44:29.540Z,102076.72
2018-09-13T01:45:30.036Z,102077.27
2018-09-13T01:46:31.062Z,102077.27
2018-09-13T01:47:31.558Z,102076.88
2018-09-13T01:48:31.728Z,102076.49
2018-09-13T01:49:32.631Z,102076.10
2018-09-13T01:50:33.035Z,102075.71
2018-09-13T01:51:32.973Z,102074.91
2018-09-13T01:52:34.143Z,102074.26
2018-09-13T01:53:34.164Z,102074.34
2018-09-13T01:54:33.417Z,102073.86
2018-09-13T01:55:34.922Z,102073.73
2018-09-13T01:56:35.327Z,102073.02
2018-09-13T01:56:43.782Z,102067.98
2018-09-13T01:57:45.061Z,102067.38
2018-09-13T01:58:45.328Z,102067.21
2018-09-13T01:59:46.284Z,102066.79
2018-09-13T02:00:47.115Z,102066.88
2018-09-13T02:01:47.979Z,102066.78
2018-09-13T02:02:48.752Z,102066.91
2018-09-13T02:03:49.592Z,102066.73
2018-09-13T02:04:49.811Z,102067.16
2018-09-13T02:05:50.132Z,102066.98
2018-09-13T02:06:50.918Z,102067.20
2018-09-13T02:07:51.609Z,102067.72
2018-09-13T02:08:51.876Z,102067.50
2018-09-13T02:09:52.079Z,102066.52
2018-09-13T02:10:52.968Z,102065.93
2018-09-13T02:11:53.275Z,102064.91
2018-09-13T02:12:54.143Z,102064.69
2018-09-13T02:13:54.582Z,102063.75
2018-09-13T02:14:54.885Z,102063.33
2018-09-13T02:15:55.709Z,102062.64
2018-09-13T02:16:55.940Z,102061.33
2018-09-13T02:17:55.992Z,102059.96
2018-09-13T02:18:56.316Z,102059.02
2018-09-13T02:19:57.117Z,102057.39
2018-09-13T02:20:57.671Z,102055.94
2018-09-13T02:21:58.039Z,102054.57
2018-09-13T02:22:58.304Z,102052.95
2018-09-13T02:23:58.727Z,102052.61
2018-09-13T02:24:59.288Z,102051.93
2018-09-13T02:25:59.832Z,102051.26
2018-09-13T02:27:00.797Z,102051.09
2018-09-13T02:28:01.320Z,102050.75
2018-09-13T02:29:01.992Z,102050.06
2018-09-13T02:30:02.791Z,102049.29
2018-09-13T02:31:03.030Z,102049.28
2018-09-13T02:32:03.327Z,102049.15
2018-09-13T02:33:03.524Z,102048.68
2018-09-13T02:34:03.812Z,102048.55
2018-09-13T02:35:04.328Z,102048.94
2018-09-13T02:36:04.730Z,102049.35
2018-09-13T02:37:05.103Z,102049.95
2018-09-13T02:38:05.338Z,102050.37
2018-09-13T02:39:06.325Z,102050.76
2018-09-13T02:39:14.714Z,102064.25
2018-09-13T02:40:16.124Z,102063.48
2018-09-13T02:41:16.414Z,102063.31
2018-09-13T02:42:16.850Z,102062.16
2018-09-13T02:43:17.189Z,102062.08
2018-09-13T02:44:17.356Z,102061.23
2018-09-13T02:45:17.658Z,102061.02
2018-09-13T02:46:18.023Z,102060.17
2018-09-13T02:47:18.268Z,102060.17
2018-09-13T02:48:18.499Z,102060.09
2018-09-13T02:49:18.911Z,102060.14
2018-09-13T02:50:18.134Z,102060.69
2018-09-13T02:51:19.629Z,102060.66
2018-09-13T02:52:19.840Z,102060.31
2018-09-13T02:53:20.258Z,102060.66
2018-09-13T02:54:20.528Z,102060.09
2018-09-13T02:55:20.710Z,102059.64
2018-09-13T02:56:20.943Z,102058.48
2018-09-13T02:57:21.440Z,102058.31
2018-09-13T02:58:21.932Z,102057.00
2018-09-13T02:59:21.155Z,102055.80
2018-09-13T03:00:22.537Z,102054.56
2018-09-13T03:01:22.827Z,102053.38
2018-09-13T03:02:23.065Z,102052.52
2018-09-13T03:03:23.247Z,102051.20
2018-09-13T03:04:23.531Z,102050.02
2018-09-13T03:05:23.903Z,102048.86
2018-09-13T03:06:24.176Z,102048.09
2018-09-13T03:07:24.754Z,102047.58
2018-09-13T03:08:25.063Z,102047.15
2018-09-13T03:09:24.207Z,102046.55
2018-09-13T03:10:25.474Z,102045.58
2018-09-13T03:11:25.966Z,102044.71
2018-09-13T03:12:26.161Z,102043.77
2018-09-13T03:13:26.346Z,102043.22
2018-09-13T03:14:26.688Z,102042.33
2018-09-13T03:15:25.827Z,102041.55
2018-09-13T03:16:27.138Z,102041.24
2018-09-13T03:17:27.356Z,102040.94
2018-09-13T03:18:27.415Z,102040.30
2018-09-13T03:19:27.611Z,102040.33
2018-09-13T03:20:27.811Z,102040.03
2018-09-13T03:21:28.163Z,102039.67
2018-09-13T03:22:28.372Z,102039.89
2018-09-13T03:23:28.596Z,102039.92
2018-09-13T03:24:28.785Z,102039.38
2018-09-13T03:24:37.152Z,102039.91
2018-09-13T03:25:38.304Z,102038.97
2018-09-13T03:26:38.585Z,102038.72
2018-09-13T03:27:38.831Z,102038.00
2018-09-13T03:28:39.176Z,102037.36
2018-09-13T03:29:39.863Z,102036.61
2018-09-13T03:30:40.160Z,102035.97
2018-09-13T03:31:40.434Z,102036.05
2018-09-13T03:32:40.703Z,102035.33
2018-09-13T03:33:41.011Z,102034.61
2018-09-13T03:34:41.228Z,102034.14
2018-09-13T03:35:41.594Z,102033.42
2018-09-13T03:36:40.657Z,102033.09
2018-09-13T03:37:41.855Z,102032.20
2018-09-13T03:38:42.113Z,102031.70
2018-09-13T03:39:42.455Z,102030.96
2018-09-13T03:40:42.707Z,102029.86
2018-09-13T03:41:43.017Z,102029.34
2018-09-13T03:42:43.373Z,102028.15
2018-09-13T03:43:43.600Z,102027.03
2018-09-13T03:44:44.005Z,102025.59
2018-09-13T03:45:44.269Z,102024.48
2018-09-13T03:46:44.465Z,102023.84
2018-09-13T03:47:44.819Z,102023.17
2018-09-13T03:48:45.064Z,102021.59
2018-09-13T03:49:45.326Z,102020.83
2018-09-13T03:50:45.930Z,102019.92
2018-09-13T03:51:46.149Z,102018.56
2018-09-13T03:52:46.378Z,102018.01
2018-09-13T03:53:46.613Z,102017.14
2018-09-13T03:54:46.843Z,102015.73
2018-09-13T03:55:47.101Z,102014.36
2018-09-13T03:56:47.102Z,102013.09
2018-09-13T03:57:47.439Z,102011.81
2018-09-13T03:58:47.858Z,102010.14
2018-09-13T03:59:48.091Z,102008.70
2018-09-13T04:00:47.275Z,102006.95
2018-09-13T04:01:48.500Z,102005.52
2018-09-13T04:02:48.768Z,102003.94
2018-09-13T04:03:48.949Z,102002.19
2018-09-13T04:04:49.172Z,102000.45
2018-09-13T04:05:49.379Z,101999.05
2018-09-13T04:06:49.588Z,101997.73
2018-09-13T04:07:49.792Z,101996.88
2018-09-13T04:08:50.133Z,101995.73
2018-09-13T04:08:59.206Z,101980.76
2018-09-13T04:09:59.384Z,101980.16
2018-09-13T04:10:58.916Z,101979.48
2018-09-13T04:12:00.077Z,101978.89
2018-09-13T04:13:00.558Z,101977.98
2018-09-13T04:14:00.884Z,101977.81
2018-09-13T04:15:01.102Z,101976.80
2018-09-13T04:16:01.283Z,101976.20
2018-09-13T04:17:01.855Z,101975.86
2018-09-13T04:18:02.170Z,101975.61
2018-09-13T04:19:02.404Z,101975.87
2018-09-13T04:20:02.545Z,101975.14
2018-09-13T04:21:02.793Z,101975.14
2018-09-13T04:22:02.106Z,101974.55
2018-09-13T04:23:03.449Z,101973.39
2018-09-13T04:24:03.647Z,101972.63
2018-09-13T04:25:03.822Z,101971.09
2018-09-13T04:26:04.084Z,101969.78
2018-09-13T04:27:04.327Z,101968.29
2018-09-13T04:28:04.535Z,101966.46
2018-09-13T04:29:04.796Z,101964.33
2018-09-13T04:30:05.042Z,101962.42
2018-09-13T04:31:05.258Z,101960.81
2018-09-13T04:32:05.543Z,101959.59
2018-09-13T04:33:05.735Z,101958.15
2018-09-13T04:34:05.931Z,101957.30
2018-09-13T04:35:06.191Z,101956.89
2018-09-13T04:36:06.527Z,101956.73
2018-09-13T04:37:06.769Z,101956.74
2018-09-13T04:38:07.198Z,101956.63
2018-09-13T04:39:07.381Z,101956.46
2018-09-13T04:40:07.948Z,101956.00
2018-09-13T04:41:08.493Z,101955.62
2018-09-13T04:42:08.737Z,101955.37
2018-09-13T04:43:09.279Z,101954.56
2018-09-13T04:44:09.463Z,101954.23
2018-09-13T04:45:09.714Z,101953.84
2018-09-13T04:46:10.223Z,101953.55
2018-09-13T04:47:10.413Z,101952.91
2018-09-13T04:48:10.945Z,101952.53
2018-09-13T04:49:11.331Z,101952.24
2018-09-13T04:50:10.523Z,101951.27
2018-09-13T04:51:11.927Z,101951.23
2018-09-13T04:52:12.188Z,101950.98
2018-09-13T04:53:12.402Z,101950.34
2018-09-13T04:54:12.765Z,101950.14
2018-09-13T04:55:11.953Z,101949.80
2018-09-13T04:55:20.021Z,101940.44
2018-09-13T04:56:21.263Z,101940.61
2018-09-13T04:57:21.483Z,101940.78
2018-09-13T04:58:21.752Z,101941.34
2018-09-13T04:59:22.381Z,101942.27
2018-09-13T05:00:22.771Z,101943.20
2018-09-13T05:01:22.282Z,101944.23
2018-09-13T05:02:23.609Z,101945.33
2018-09-13T05:03:23.833Z,101945.84
2018-09-13T05:04:24.158Z,101946.53
2018-09-13T05:05:24.309Z,101947.47
2018-09-13T05:06:24.648Z,101949.52
2018-09-13T05:07:23.917Z,101951.05
2018-09-13T05:08:25.275Z,101952.41
2018-09-13T05:09:25.495Z,101954.20
2018-09-13T05:10:25.695Z,101955.56
2018-09-13T05:11:25.941Z,101956.80
2018-09-13T05:12:26.285Z,101957.91
2018-09-13T05:13:26.476Z,101958.68
2018-09-13T05:14:26.691Z,101959.31
2018-09-13T05:15:26.846Z,101959.49
2018-09-13T05:16:27.185Z,101960.39
2018-09-13T05:17:27.591Z,101961.25
2018-09-13T05:18:28.115Z,101962.05
2018-09-13T05:19:28.305Z,101962.95
2018-09-13T05:20:28.498Z,101964.20
2018-09-13T05:21:28.885Z,101965.44
2018-09-13T05:22:29.152Z,101966.42
2018-09-13T05:23:29.320Z,101966.98
2018-09-13T05:24:29.676Z,101967.88
2018-09-13T05:25:28.831Z,101967.88
2018-09-13T05:26:30.062Z,101968.95
2018-09-13T05:27:30.675Z,101969.72
2018-09-13T05:28:30.956Z,101970.45
2018-09-13T05:29:31.159Z,101971.69
2018-09-13T05:30:31.354Z,101972.66
2018-09-13T05:31:31.759Z,101973.14
2018-09-13T05:32:31.944Z,101974.08
2018-09-13T05:33:32.176Z,101975.35
2018-09-13T05:34:32.419Z,101975.52
2018-09-13T05:35:32.580Z,101976.50
2018-09-13T05:36:33.041Z,101977.18
2018-09-13T05:37:33.299Z,101977.44
2018-09-13T05:38:33.678Z,101977.98
2018-09-13T05:39:33.584Z,101978.53
2018-09-13T05:40:34.985Z,101978.87
2018-09-13T05:41:35.251Z,101979.33
2018-09-13T05:42:35.570Z,101979.92
2018-09-13T05:42:43.899Z,101994.86
2018-09-13T05:43:45.013Z,101993.96
2018-09-13T05:44:45.263Z,101993.79
2018-09-13T05:45:44.350Z,101993.11
2018-09-13T05:46:45.623Z,101993.58
2018-09-13T05:47:45.818Z,101993.15
2018-09-13T05:48:46.081Z,101993.28
2018-09-13T05:49:46.287Z,101993.45
2018-09-13T05:50:46.822Z,101994.08
2018-09-13T05:51:47.414Z,101994.71
2018-09-13T05:52:47.708Z,101994.97
2018-09-13T05:53:47.946Z,101995.69
2018-09-13T05:54:48.256Z,101996.41
2018-09-13T05:55:48.489Z,101997.09
2018-09-13T05:56:48.816Z,101997.62
2018-09-13T05:57:49.055Z,101998.86
2018-09-13T05:58:49.267Z,101999.96
2018-09-13T05:59:49.526Z,102000.51
2018-09-13T06:00:49.722Z,102001.73
2018-09-13T06:01:50.084Z,102002.51
2018-09-13T06:02:50.281Z,102003.31
2018-09-13T06:03:50.519Z,102004.06
2018-09-13T06:04:50.696Z,102004.70
2018-09-13T06:05:50.966Z,102005.77
2018-09-13T06:06:51.265Z,102006.83
2018-09-13T06:07:51.513Z,102007.13
2018-09-13T06:08:51.671Z,102007.97
2018-09-13T06:09:51.853Z,102008.56
2018-09-13T06:10:52.114Z,102008.91
2018-09-13T06:11:52.471Z,102009.64
2018-09-13T06:12:51.858Z,102010.32
2018-09-13T06:13:53.106Z,102010.91
2018-09-13T06:14:53.343Z,102011.68
2018-09-13T06:15:54.247Z,102011.68
2018-09-13T06:16:54.678Z,102012.19
2018-09-13T06:17:54.889Z,102012.75
2018-09-13T06:18:55.285Z,102013.77
2018-09-13T06:19:55.459Z,102014.36
2018-09-13T06:20:55.666Z,102014.92
2018-09-13T06:21:55.949Z,102015.86
2018-09-13T06:22:56.292Z,102017.05
2018-09-13T06:23:56.720Z,102018.16
2018-09-13T06:24:55.897Z,102019.60
2018-09-13T06:25:57.455Z,102020.33
2018-09-13T06:26:57.811Z,102022.55
2018-09-13T06:27:06.127Z,102043.06
2018-09-13T06:28:07.284Z,102042.47
2018-09-13T06:29:07.767Z,102042.81
2018-09-13T06:30:07.970Z,102043.67
2018-09-13T06:31:08.249Z,102043.62
2018-09-13T06:32:08.515Z,102043.96
2018-09-13T06:33:09.156Z,102044.18
2018-09-13T06:34:09.427Z,102044.81
2018-09-13T06:35:09.628Z,102044.98
2018-09-13T06:36:09.849Z,102045.50
2018-09-13T06:37:10.385Z,102045.67
2018-09-13T06:38:10.665Z,102046.18
2018-09-13T06:39:12.260Z,102046.61
2018-09-13T06:40:11.375Z,102046.95
2018-09-13T06:41:11.757Z,102047.21
2018-09-13T06:42:11.323Z,102048.41
2018-09-13T06:43:13.278Z,102048.75
2018-09-13T06:44:13.613Z,102049.17
2018-09-13T06:45:13.781Z,102050.07
2018-09-13T06:46:13.176Z,102051.36
2018-09-13T06:47:14.698Z,102051.66
2018-09-13T06:48:15.263Z,102052.38
2018-09-13T06:49:15.529Z,102053.12
2018-09-13T06:50:15.739Z,102053.25
2018-09-13T06:51:16.135Z,102054.02
2018-09-13T06:52:16.387Z,102054.20
2018-09-13T06:53:16.719Z,102054.51
2018-09-13T06:54:17.081Z,102055.02
2018-09-13T06:55:16.238Z,102054.73
2018-09-13T06:56:17.465Z,102055.20
2018-09-13T06:57:17.778Z,102055.59
2018-09-13T06:58:18.028Z,102055.38
2018-09-13T06:59:18.277Z,102055.30
2018-09-13T07:00:18.664Z,102056.12
2018-09-13T07:01:18.898Z,102055.91
2018-09-13T07:02:19.180Z,102056.13
2018-09-13T07:03:19.424Z,102056.35
2018-09-13T07:04:20.173Z,102056.73
2018-09-13T07:05:20.506Z,102056.83
2018-09-13T07:06:21.022Z,102057.55
2018-09-13T07:07:21.408Z,102057.35
2018-09-13T07:08:21.816Z,102057.81
2018-09-13T07:09:22.258Z,102058.42
2018-09-13T07:10:22.710Z,102058.38
2018-09-13T07:11:23.471Z,102058.71
2018-09-13T07:12:23.893Z,102059.66
2018-09-13T07:12:32.065Z,102068.20
2018-09-13T07:13:32.229Z,102067.70
2018-09-13T07:14:33.431Z,102067.10
2018-09-13T07:15:32.743Z,102066.59
2018-09-13T07:16:34.179Z,102066.67
2018-09-13T07:17:34.354Z,102066.41
2018-09-13T07:18:35.715Z,102065.73
2018-09-13T07:19:33.745Z,102065.98
2018-09-13T07:20:35.546Z,102065.64
2018-09-13T07:21:35.909Z,102065.90
2018-09-13T07:22:35.256Z,102065.56
2018-09-13T07:23:36.802Z,102065.44
2018-09-13T07:24:35.907Z,102065.10
2018-09-13T07:25:36.288Z,102065.48
2018-09-13T07:26:37.530Z,102065.41
2018-09-13T07:27:37.834Z,102065.02
2018-09-13T07:28:38.077Z,102065.07
2018-09-13T07:29:38.916Z,102064.95
2018-09-13T07:30:39.217Z,102064.48
2018-09-13T07:31:39.750Z,102064.27
2018-09-13T07:32:40.083Z,102064.10
2018-09-13T07:33:39.523Z,102063.88
2018-09-13T07:34:42.285Z,102063.63
2018-09-13T07:35:41.126Z,102063.89
2018-09-13T07:36:42.695Z,102063.81
2018-09-13T07:37:41.721Z,102063.98
2018-09-13T07:38:42.888Z,102064.41
2018-09-13T07:39:43.221Z,102064.58
2018-09-13T07:40:43.108Z,102065.08
2018-09-13T07:41:43.180Z,102065.13
2018-09-13T07:42:43.305Z,102065.46
2018-09-13T07:43:43.925Z,102065.55
2018-09-13T07:44:45.203Z,102065.67
2018-09-13T07:45:45.376Z,102065.89
2018-09-13T07:46:45.967Z,102066.35
2018-09-13T07:47:46.947Z,102066.90
2018-09-13T07:48:47.564Z,102067.27
2018-09-13T07:48:56.492Z,102075.47
2018-09-13T07:49:55.937Z,102075.22
2018-09-13T07:50:56.134Z,102076.07
2018-09-13T07:51:57.494Z,102075.81
2018-09-13T07:52:57.830Z,102076.50
2018-09-13T07:53:58.092Z,102076.67
2018-09-13T07:54:58.441Z,102076.75
2018-09-13T07:55:58.672Z,102076.58
2018-09-13T07:56:59.119Z,102076.75
2018-09-13T07:57:59.374Z,102077.27
2018-09-13T07:58:59.815Z,102077.70
2018-09-13T08:00:00.016Z,102077.64
2018-09-13T08:01:00.270Z,102076.88
2018-09-13T08:02:00.891Z,102076.45
2018-09-13T08:03:01.202Z,102076.45
2018-09-13T08:04:01.418Z,102075.87
2018-09-13T08:05:01.549Z,102075.36
2018-09-13T08:06:00.766Z,102074.84
2018-09-13T08:07:02.010Z,102073.98
2018-09-13T08:08:02.589Z,102072.97
2018-09-13T08:09:02.925Z,102072.62
2018-09-13T08:10:03.236Z,102071.84
2018-09-13T08:11:03.639Z,102071.16
2018-09-13T08:12:04.465Z,102070.53
2018-09-13T08:13:03.514Z,102069.84
2018-09-13T08:14:04.631Z,102068.83
2018-09-13T08:15:05.058Z,102068.14
2018-09-13T08:16:05.354Z,102067.41
2018-09-13T08:17:04.431Z,102066.81
2018-09-13T08:18:05.743Z,102066.90
2018-09-13T08:19:05.914Z,102066.81
2018-09-13T08:20:06.265Z,102066.98
2018-09-13T08:21:06.571Z,102067.41
2018-09-13T08:22:06.857Z,102067.33
2018-09-13T08:23:06.220Z,102067.50
2018-09-13T08:24:07.725Z,102067.76
2018-09-13T08:25:07.874Z,102067.42
2018-09-13T08:26:08.209Z,102067.50
2018-09-13T08:27:08.483Z,102067.12
2018-09-13T08:28:08.693Z,102066.59
2018-09-13T08:29:09.014Z,102067.58
2018-09-13T08:30:09.322Z,102067.36
2018-09-13T08:31:09.842Z,102067.65
2018-09-13T08:32:10.148Z,102067.83
2018-09-13T08:33:10.450Z,102068.11
2018-09-13T08:34:10.737Z,102068.36
2018-09-13T08:35:11.022Z,102068.23
2018-09-13T08:36:10.249Z,102068.48
2018-09-13T08:37:11.528Z,102068.64
2018-09-13T08:38:12.066Z,102068.76
2018-09-13T08:38:20.391Z,102065.09
2018-09-13T08:39:21.589Z,102064.67
2018-09-13T08:40:21.923Z,102064.42
2018-09-13T08:41:21.330Z,102064.20
2018-09-13T08:42:22.484Z,102063.77
2018-09-13T08:43:22.752Z,102064.03
2018-09-13T08:44:22.981Z,102063.91
2018-09-13T08:45:23.199Z,102064.33
2018-09-13T08:46:23.522Z,102064.23
2018-09-13T08:47:24.051Z,102064.31
2018-09-13T08:48:23.456Z,102064.79
2018-09-13T08:49:24.927Z,102064.92
2018-09-13T08:50:25.543Z,102065.67
2018-09-13T08:51:26.153Z,102065.72
2018-09-13T08:52:26.631Z,102065.75
2018-09-13T08:53:27.094Z,102066.09
2018-09-13T08:54:27.512Z,102066.47
2018-09-13T08:55:27.975Z,102066.59
2018-09-13T08:56:28.309Z,102066.68
2018-09-13T08:57:28.557Z,102066.98
2018-09-13T08:58:28.831Z,102067.14
2018-09-13T08:59:29.268Z,102067.70
2018-09-13T09:00:29.513Z,102069.02
2018-09-13T09:01:29.787Z,102070.16
2018-09-13T09:02:29.999Z,102071.27
2018-09-13T09:03:30.323Z,102072.59
2018-09-13T09:04:29.593Z,102073.95
2018-09-13T09:05:31.054Z,102075.10
2018-09-13T09:06:31.706Z,102075.78
2018-09-13T09:07:31.352Z,102076.33
2018-09-13T09:08:32.823Z,102077.53
2018-09-13T09:09:33.084Z,102078.60
2018-09-13T09:10:33.730Z,102079.37
2018-09-13T09:11:34.199Z,102079.62
2018-09-13T09:12:34.623Z,102080.95
2018-09-13T09:13:34.817Z,102081.70
2018-09-13T09:14:35.131Z,102082.23
2018-09-13T09:15:35.703Z,102083.20
2018-09-13T09:16:36.311Z,102083.47
2018-09-13T09:17:36.421Z,102083.55
2018-09-13T09:18:36.615Z,102083.98
2018-09-13T09:19:35.922Z,102083.30
2018-09-13T09:20:37.382Z,102082.88
2018-09-13T09:21:37.622Z,102082.32
2018-09-13T09:22:37.838Z,102082.02
2018-09-13T09:23:38.297Z,102081.26
2018-09-13T09:24:38.688Z,102080.57
2018-09-13T09:25:39.153Z,102079.72
2018-09-13T09:25:49.586Z,102074.52
2018-09-13T09:26:50.852Z,102073.59
2018-09-13T09:27:51.084Z,102073.41
2018-09-13T09:28:51.308Z,102072.52
2018-09-13T09:29:50.501Z,102072.47
2018-09-13T09:30:50.742Z,102072.50
2018-09-13T09:31:51.950Z,102072.41
2018-09-13T09:32:52.224Z,102072.17
2018-09-13T09:33:52.492Z,102071.14
2018-09-13T09:34:53.336Z,102070.53
2018-09-13T09:35:52.353Z,102069.97
2018-09-13T09:36:53.560Z,102069.36
2018-09-13T09:37:53.803Z,102068.66
2018-09-13T09:38:54.313Z,102067.95
2018-09-13T09:39:54.560Z,102067.37
2018-09-13T09:40:53.796Z,102067.56
2018-09-13T09:41:55.207Z,102067.59
2018-09-13T09:42:55.345Z,102067.70
2018-09-13T09:43:55.619Z,102067.47
2018-09-13T09:44:56.271Z,102067.48
2018-09-13T09:45:56.488Z,102066.99
2018-09-13T09:46:56.704Z,102066.97
2018-09-13T09:47:56.998Z,102066.52
2018-09-13T09:48:57.491Z,102066.11
2018-09-13T09:49:57.979Z,102065.44
2018-09-13T09:50:58.486Z,102064.65
2018-09-13T09:51:59.002Z,102064.32
2018-09-13T09:52:58.801Z,102063.91
2018-09-13T09:53:59.026Z,102063.25
2018-09-13T09:55:00.439Z,102062.62
2018-09-13T09:56:00.877Z,102061.70
2018-09-13T09:57:00.119Z,102061.56
2018-09-13T09:58:01.426Z,102060.77
2018-09-13T09:59:00.515Z,102060.16
2018-09-13T10:00:01.778Z,102059.92
2018-09-13T10:01:01.937Z,102059.56
2018-09-13T10:02:02.213Z,102059.70
2018-09-13T10:03:02.376Z,102059.17
2018-09-13T10:04:02.575Z,102058.83
2018-09-13T10:05:02.741Z,102058.69
2018-09-13T10:06:03.101Z,102058.38
2018-09-13T10:07:03.346Z,102058.45
2018-09-13T10:08:04.018Z,102058.05
2018-09-13T10:09:04.306Z,102057.66
2018-09-13T10:10:03.606Z,102057.43
2018-09-13T10:11:04.864Z,102058.45
2018-09-13T10:12:05.054Z,102058.27
2018-09-13T10:13:05.367Z,102058.53
2018-09-13T10:14:05.618Z,102058.75
2018-09-13T10:15:06.021Z,102058.50
2018-09-13T10:16:05.320Z,102058.58
2018-09-13T10:17:05.901Z,102058.58
2018-09-13T10:18:07.127Z,102058.07
2018-09-13T10:18:15.488Z,102053.33
2018-09-13T10:19:16.788Z,102052.91
2018-09-13T10:20:17.084Z,102052.91
2018-09-13T10:21:17.764Z,102052.91
2018-09-13T10:22:17.995Z,102052.23
2018-09-13T10:23:18.996Z,102052.30
2018-09-13T10:24:19.240Z,102052.18
2018-09-13T10:25:19.561Z,102052.17
2018-09-13T10:26:19.874Z,102051.70
2018-09-13T10:27:19.981Z,102051.22
2018-09-13T10:28:19.423Z,102051.51
2018-09-13T10:29:20.868Z,102050.69
2018-09-13T10:30:20.097Z,102050.47
2018-09-13T10:31:21.658Z,102050.32
2018-09-13T10:32:21.980Z,102049.66
2018-09-13T10:33:22.153Z,102049.50
2018-09-13T10:34:22.617Z,102048.89
2018-09-13T10:35:22.953Z,102049.05
2018-09-13T10:36:23.225Z,102049.03
2018-09-13T10:37:23.585Z,102049.00
2018-09-13T10:38:23.990Z,102048.77
2018-09-13T10:39:24.293Z,102048.91
2018-09-13T10:40:24.876Z,102049.39
2018-09-13T10:41:25.233Z,102049.28
2018-09-13T10:42:24.728Z,102049.14
2018-09-13T10:43:26.083Z,102049.55
2018-09-13T10:44:26.408Z,102049.36
2018-09-13T10:45:26.902Z,102048.99
2018-09-13T10:46:27.301Z,102048.80
2018-09-13T10:47:27.599Z,102048.69
2018-09-13T10:48:26.936Z,102048.57
2018-09-13T10:49:28.247Z,102048.97
2018-09-13T10:50:28.636Z,102049.55
2018-09-13T10:51:28.816Z,102049.27
2018-09-13T10:52:29.172Z,102049.94
2018-09-13T10:53:28.347Z,102049.84
2018-09-13T10:54:29.677Z,102050.63
2018-09-13T10:55:29.115Z,102051.13
2018-09-13T10:56:29.604Z,102052.02
2018-09-13T10:57:30.825Z,102052.89
2018-09-13T10:58:31.136Z,102053.86
2018-09-13T10:59:31.309Z,102055.00
2018-09-13T11:00:31.472Z,102055.98
2018-09-13T11:01:32.175Z,102056.70
2018-09-13T11:02:32.405Z,102057.45
2018-09-13T11:03:32.800Z,102058.36
2018-09-13T11:04:33.239Z,102058.95
2018-09-13T11:05:32.685Z,102059.72
2018-09-13T11:06:33.055Z,102060.33
2018-09-13T11:07:34.843Z,102060.93
2018-09-13T11:08:35.267Z,102061.06
2018-09-13T11:08:44.551Z,102072.09
2018-09-13T11:09:44.815Z,102071.50
2018-09-13T11:10:45.196Z,102071.16
2018-09-13T11:11:44.675Z,102070.73
2018-09-13T11:12:46.394Z,102071.28
2018-09-13T11:13:46.697Z,102070.43
2018-09-13T11:14:46.139Z,102070.68
2018-09-13T11:15:47.464Z,102070.51